Time;durP1;ratioP1;P1;durP2;ratioP2;P2;SDS_P1;SDS_P2;PMS_P1;PMS_P2;Temp;Humidity;BMP_temperature;BMP_pressure;BME280_temperature;BME280_humidity;BME280_pressure;Samples;Min_cycle;Max_cycle;Signal;HPM_P1;HPM_P2
2022/01/26 00:06:42;;;;;;;61.37;30.62;;;;;;;2.40;95.56;101059.43;1721395;82;25685;-72
2022/01/26 00:09:11;;;;;;;56.33;29.87;;;;;;;2.41;95.59;101059.73;1720585;83;27359;-71
2022/01/26 00:11:39;;;;;;;59.53;30.27;;;;;;;2.41;95.60;101060.53;1720967;83;25639;-71
2022/01/26 00:14:11;;;;;;;59.25;29.87;;;;;;;2.40;95.56;101066.11;1694126;83;25485;-71
2022/01/26 00:16:39;;;;;;;55.48;29.77;;;;;;;2.40;95.54;101064.77;1720465;83;25758;-71
2022/01/26 00:19:10;;;;;;;40.10;20.35;;;;;;;2.38;95.72;101062.86;1721013;83;25662;-71
2022/01/26 00:21:47;;;;;;;53.58;26.87;;;;;;;2.38;95.72;101062.86;1720662;83;27461;-72
2022/01/26 00:24:22;;;;;;;58.65;28.50;;;;;;;2.37;95.63;101060.73;1718869;83;25657;-70
2022/01/26 00:29:11;;;;;;;52.00;27.02;;;;;;;2.37;95.71;101063.93;1649707;87;26308;-71
2022/01/26 00:40:35;;;;;;;64.15;32.50;;;;;;;2.36;95.66;101061.77;1663922;86;25581;-70
2022/01/26 00:43:08;;;;;;;62.67;29.87;;;;;;;2.38;95.67;101065.53;1621472;88;25885;-71
2022/01/26 00:45:34;;;;;;;64.82;31.68;;;;;;;2.39;95.72;101067.17;1662712;86;25709;-72
2022/01/26 00:47:57;;;;;;;58.83;30.80;;;;;;;2.37;95.64;101067.41;1621315;88;27406;-72
2022/01/26 00:50:24;;;;;;;63.68;32.35;;;;;;;2.36;95.63;101071.11;1650220;86;25519;-72
2022/01/26 00:52:53;;;;;;;61.68;30.40;;;;;;;2.38;95.64;101070.38;1664183;86;25596;-72
2022/01/26 00:55:20;;;;;;;60.50;31.50;;;;;;;2.39;95.65;101076.52;1621995;87;25623;-72
2022/01/26 00:57:48;;;;;;;58.35;31.45;;;;;;;2.40;95.60;101072.78;1664212;86;25551;-72
2022/01/26 01:00:27;;;;;;;56.85;30.62;;;;;;;2.40;95.62;101068.78;1622290;88;28003;-72
2022/01/26 01:02:57;;;;;;;62.38;30.25;;;;;;;2.40;95.58;101067.44;1664276;86;25724;-72
2022/01/26 01:05:32;;;;;;;61.02;30.32;;;;;;;2.40;95.54;101063.44;1622496;85;25575;-72
2022/01/26 01:08:01;;;;;;;53.15;29.82;;;;;;;2.39;95.52;101064.50;1674859;85;25623;-73
2022/01/26 01:10:24;;;;;;;59.03;29.13;;;;;;;2.39;95.55;101059.96;1682519;85;25605;-73
2022/01/26 01:12:57;;;;;;;54.38;29.00;;;;;;;2.38;95.50;101063.70;1682925;84;27932;-73
2022/01/26 01:15:20;;;;;;;58.13;30.00;;;;;;;2.39;95.46;101065.84;1682534;84;25436;-73
2022/01/26 01:17:51;;;;;;;45.20;24.05;;;;;;;2.39;95.44;101060.50;1683265;84;25697;-71
2022/01/26 01:23:14;;;;;;;46.20;24.20;;;;;;;2.36;95.24;101060.42;1683356;85;25425;-73
2022/01/26 01:30:41;;;;;;;39.15;22.00;;;;;;;2.33;95.18;101052.08;1683103;84;25601;-72
2022/01/26 01:33:08;;;;;;;46.90;25.02;;;;;;;2.32;95.11;101049.14;1682522;85;25622;-72
2022/01/26 01:35:38;;;;;;;44.23;24.75;;;;;;;2.30;95.09;101049.38;1682810;84;25701;-72
2022/01/26 01:38:16;;;;;;;48.23;25.55;;;;;;;2.31;95.21;101050.17;1682938;84;27328;-72
2022/01/26 01:40:43;;;;;;;48.58;24.05;;;;;;;2.29;95.13;101041.06;1682330;84;25423;-72
2022/01/26 01:43:12;;;;;;;42.13;22.93;;;;;;;2.29;95.14;101045.59;1682924;85;25463;-72
2022/01/26 01:45:45;;;;;;;42.95;22.48;;;;;;;2.27;95.10;101039.16;1682968;84;26251;-72
2022/01/26 01:48:17;;;;;;;44.23;23.22;;;;;;;2.24;94.95;101043.09;1682832;84;25598;-72
2022/01/26 01:50:43;;;;;;;39.58;21.48;;;;;;;2.24;94.91;101043.63;1666708;85;27245;-72
2022/01/26 01:53:12;;;;;;;40.03;21.17;;;;;;;2.20;94.72;101038.48;1682797;85;25561;-73
2022/01/26 01:55:43;;;;;;;38.30;20.90;;;;;;;2.18;94.68;101033.87;1683023;85;25420;-73
2022/01/26 01:58:10;;;;;;;36.95;20.15;;;;;;;2.16;94.70;101033.30;1682873;85;25712;-73
2022/01/26 02:05:47;;;;;;;40.58;21.62;;;;;;;2.11;94.79;101024.69;1667128;81;26931;-71
2022/01/26 02:08:13;;;;;;;40.50;22.55;;;;;;;2.11;94.83;101027.86;1670876;85;25589;-71
2022/01/26 02:10:41;;;;;;;36.85;21.68;;;;;;;2.10;94.83;101027.59;1670830;85;26089;-71
2022/01/26 02:13:37;;;;;;;36.93;20.80;;;;;;;2.09;94.79;101022.75;1659059;86;25378;-72
2022/01/26 02:15:49;;;;;;;36.75;20.92;;;;;;;2.08;94.77;101029.16;1629871;87;28238;-72
2022/01/26 02:18:33;;;;;;;35.08;20.88;;;;;;;2.08;94.82;101030.98;1642280;87;25750;-72
2022/01/26 02:21:07;;;;;;;36.25;21.33;;;;;;;2.07;94.83;101025.38;1656238;86;25602;-73
2022/01/26 02:55:58;;;;;;;49.50;24.52;;;;;;;2.10;95.35;101023.58;1659131;86;27395;-75
2022/01/26 03:06:47;;;;;;;52.15;24.27;;;;;;;2.13;95.35;101012.41;1633895;86;25593;-74
2022/01/26 03:09:11;;;;;;;53.85;25.95;;;;;;;2.13;95.27;101015.08;1656426;86;27348;-74
2022/01/26 03:11:36;;;;;;;58.15;28.40;;;;;;;2.12;95.25;101016.95;1658275;86;25483;-75
2022/01/26 03:14:12;;;;;;;54.88;26.57;;;;;;;2.12;95.32;101016.15;1659004;85;25593;-75
2022/01/26 03:16:42;;;;;;;60.20;27.50;;;;;;;2.13;95.29;101017.75;1657072;86;25806;-75
2022/01/26 03:29:56;;;;;;;55.05;25.15;;;;;;;2.11;95.28;101015.34;1658981;86;25417;-75
2022/01/26 03:34:58;;;;;;;54.23;25.25;;;;;;;2.11;95.39;101016.68;1659017;85;27368;-75
2022/01/26 03:37:32;;;;;;;49.55;24.35;;;;;;;2.12;95.43;101016.15;1658911;86;25695;-74
2022/01/26 03:39:53;;;;;;;53.25;26.02;;;;;;;2.12;95.43;101011.61;1658091;86;25443;-74
2022/01/26 03:42:20;;;;;;;51.42;24.80;;;;;;;2.14;95.40;101011.38;1658931;86;25622;-74
2022/01/26 03:44:46;;;;;;;50.17;24.77;;;;;;;2.13;95.37;101010.58;1659029;85;25550;-74
2022/01/26 03:47:13;;;;;;;49.88;24.72;;;;;;;2.12;95.31;101014.28;1634025;86;27559;-74
2022/01/26 03:49:41;;;;;;;46.30;22.65;;;;;;;2.12;95.30;101012.95;1658894;86;25388;-74
2022/01/26 03:52:09;;;;;;;50.08;24.92;;;;;;;2.13;95.37;101013.75;1659001;86;25424;-74
2022/01/26 03:54:37;;;;;;;57.98;25.52;;;;;;;2.12;95.33;101012.95;1658950;85;25687;-74
2022/01/26 03:57:04;;;;;;;56.08;25.97;;;;;;;2.12;95.28;101014.28;1659028;86;25630;-75
2022/01/26 03:59:31;;;;;;;61.53;25.72;;;;;;;2.13;95.33;101017.75;1655066;86;27400;-75
2022/01/26 04:01:57;;;;;;;54.38;25.17;;;;;;;2.11;95.31;101010.01;1658916;86;25648;-75
2022/01/26 04:04:24;;;;;;;56.92;26.12;;;;;;;2.13;95.30;101014.58;1659020;86;25559;-75
2022/01/26 04:06:51;;;;;;;58.55;26.97;;;;;;;2.13;95.35;101019.09;1658858;86;26159;-75
2022/01/26 04:09:19;;;;;;;57.98;25.68;;;;;;;2.12;95.26;101015.62;1659009;85;25554;-75
2022/01/26 04:11:48;;;;;;;52.90;24.40;;;;;;;2.12;95.26;101015.62;1658963;86;27888;-75
2022/01/26 04:14:19;;;;;;;56.33;24.87;;;;;;;2.12;95.34;101010.28;1658784;85;25581;-75
2022/01/26 04:16:45;;;;;;;62.95;27.05;;;;;;;2.11;95.32;101014.02;1659030;86;25469;-75
2022/01/26 04:19:12;;;;;;;59.88;27.37;;;;;;;2.11;95.30;101011.84;1659114;85;25800;-75
2022/01/26 04:24:23;;;;;;;56.45;25.92;;;;;;;2.08;95.27;101013.14;1659126;86;28209;-75
2022/01/26 04:29:27;;;;;;;62.25;26.37;;;;;;;2.09;95.41;101007.27;1634082;86;25523;-75
2022/01/26 04:31:51;;;;;;;56.85;28.27;;;;;;;2.08;95.45;101003.80;1658587;86;26156;-75
2022/01/26 04:34:19;;;;;;;59.50;26.68;;;;;;;2.08;95.41;101001.62;1659130;85;25553;-75
2022/01/26 04:36:53;;;;;;;55.10;25.70;;;;;;;2.06;95.30;101000.56;1659093;86;27954;-75
2022/01/26 04:39:18;;;;;;;55.28;26.00;;;;;;;2.05;95.34;101001.06;1657975;86;25507;-75
2022/01/26 04:41:53;;;;;;;64.37;27.30;;;;;;;2.04;95.33;100998.63;1658683;86;25455;-75
2022/01/26 04:44:25;;;;;;;60.43;27.48;;;;;;;2.04;95.41;100998.12;1658397;86;25455;-76
2022/01/26 04:46:46;;;;;;;52.23;25.37;;;;;;;2.04;95.45;100997.29;1657348;86;25467;-75
2022/01/26 04:49:13;;;;;;;56.75;26.60;;;;;;;2.05;95.45;100998.92;1634307;86;28133;-75
2022/01/26 04:51:39;;;;;;;52.80;24.02;;;;;;;2.05;95.46;100998.92;1659011;86;25657;-75
2022/01/26 04:54:05;;;;;;;60.45;27.13;;;;;;;2.05;95.40;100994.92;1659090;86;25475;-75
2022/01/26 04:56:32;;;;;;;57.50;26.15;;;;;;;2.04;95.38;100999.95;1634031;86;25641;-75
2022/01/26 04:58:58;;;;;;;54.05;23.73;;;;;;;2.04;95.46;100994.62;1634144;86;25665;-75
2022/01/26 05:01:25;;;;;;;51.25;25.17;;;;;;;2.04;95.49;100987.95;1659017;86;27447;-75
2022/01/26 05:03:51;;;;;;;51.95;25.25;;;;;;;2.03;95.48;100985.01;1658969;86;25592;-75
2022/01/26 05:06:17;;;;;;;51.88;23.85;;;;;;;2.04;95.43;100991.95;1658995;86;25564;-76
2022/01/26 05:08:44;;;;;;;47.60;23.67;;;;;;;2.04;95.42;100987.45;1659066;86;25749;-76
2022/01/26 05:11:15;;;;;;;55.28;25.60;;;;;;;2.03;95.41;100979.14;1659091;86;25541;-76
2022/01/26 05:13:39;;;;;;;50.45;23.75;;;;;;;2.04;95.46;100980.78;1658801;86;27355;-76
2022/01/26 05:16:08;;;;;;;53.23;25.02;;;;;;;2.04;95.45;100977.27;1659051;86;25622;-76
2022/01/26 05:18:34;;;;;;;55.30;24.07;;;;;;;2.02;95.38;100975.38;1659212;85;25542;-76
2022/01/26 05:21:01;;;;;;;48.73;22.25;;;;;;;2.01;95.38;100973.73;1659078;86;25641;-76
2022/01/26 05:23:27;;;;;;;52.00;24.20;;;;;;;1.99;95.40;100972.66;1659075;86;25592;-76
2022/01/26 05:25:54;;;;;;;54.20;23.67;;;;;;;2.00;95.43;100973.47;1659080;86;27108;-76
2022/01/26 05:28:20;;;;;;;51.88;23.87;;;;;;;2.01;95.46;100976.41;1658944;86;25401;-75
2022/01/26 05:30:46;;;;;;;47.83;23.62;;;;;;;2.01;95.44;100977.73;1659083;86;25596;-75
2022/01/26 05:33:13;;;;;;;48.80;22.60;;;;;;;2.01;95.44;100972.41;1659051;86;26148;-75
2022/01/26 05:35:42;;;;;;;49.65;23.35;;;;;;;2.01;95.44;100967.06;1659097;86;25514;-76
2022/01/26 05:38:08;;;;;;;53.78;23.62;;;;;;;2.01;95.41;100972.41;1659076;86;27345;-75
2022/01/26 05:40:34;;;;;;;51.45;23.22;;;;;;;2.00;95.37;100969.47;1658970;86;25644;-75
2022/01/26 05:43:01;;;;;;;46.58;22.22;;;;;;;1.99;95.36;100974.00;1659054;86;25636;-76
2022/01/26 05:45:33;;;;;;;46.55;22.65;;;;;;;1.99;95.26;100971.83;1659036;86;26194;-76
2022/01/26 05:47:56;;;;;;;52.08;21.27;;;;;;;1.96;95.19;100972.30;1658443;86;25471;-76
2022/01/26 05:50:22;;;;;;;50.65;21.77;;;;;;;1.96;95.24;100973.63;1659153;86;27341;-76
2022/01/26 05:52:50;;;;;;;47.70;21.68;;;;;;;1.95;95.23;100973.36;1634169;86;25669;-75
2022/01/26 05:55:17;;;;;;;44.98;21.00;;;;;;;1.94;95.21;100979.73;1659038;86;25505;-75
2022/01/26 05:57:43;;;;;;;40.78;20.35;;;;;;;1.91;95.15;100975.69;1659028;86;25712;-75
2022/01/26 06:00:12;;;;;;;46.42;21.20;;;;;;;1.89;95.13;100977.78;1634129;86;25612;-76
2022/01/26 06:02:38;;;;;;;43.38;22.85;;;;;;;1.87;95.16;100973.18;1655292;86;27358;-76
2022/01/26 06:05:07;;;;;;;45.98;20.52;;;;;;;1.86;95.28;100973.71;1658950;86;25608;-75
2022/01/26 06:07:33;;;;;;;39.78;20.25;;;;;;;1.86;95.25;100969.71;1658490;86;25602;-76
2022/01/26 06:10:00;;;;;;;39.80;20.85;;;;;;;1.84;95.22;100973.14;1658088;86;25678;-75
2022/01/26 06:12:29;;;;;;;41.25;20.00;;;;;;;1.84;95.26;100977.14;1658126;86;25633;-74
2022/01/26 06:14:56;;;;;;;41.77;19.73;;;;;;;1.85;95.27;100980.61;1658288;86;27338;-74
2022/01/26 06:17:26;;;;;;;32.73;16.97;;;;;;;1.84;95.26;100971.01;1657993;86;25639;-74
2022/01/26 06:19:52;;;;;;;37.10;18.77;;;;;;;1.84;95.22;100972.34;1658067;86;25644;-74
2022/01/26 06:22:19;;;;;;;33.98;17.67;;;;;;;1.83;95.15;100965.38;1657990;86;25625;-74
2022/01/26 06:24:45;;;;;;;31.10;17.92;;;;;;;1.82;95.07;100965.91;1658176;86;25546;-74
2022/01/26 06:27:12;;;;;;;31.62;17.20;;;;;;;1.81;95.05;100970.13;1658084;86;27899;-75
2022/01/26 06:29:38;;;;;;;31.27;16.55;;;;;;;1.79;94.90;100965.56;1658000;86;25648;-75
2022/01/26 06:32:07;;;;;;;29.75;15.75;;;;;;;1.78;94.83;100967.39;1658059;86;25416;-75
2022/01/26 06:34:38;;;;;;;21.70;11.48;;;;;;;1.77;94.84;100965.79;1654658;86;25627;-74
2022/01/26 06:37:02;;;;;;;33.38;17.48;;;;;;;1.76;94.88;100964.16;1657770;86;25629;-75
2022/01/26 06:39:29;;;;;;;30.30;16.12;;;;;;;1.77;94.95;100963.13;1658026;85;27360;-75
2022/01/26 06:41:55;;;;;;;32.15;16.12;;;;;;;1.74;94.82;100963.59;1636777;86;25462;-74
2022/01/26 06:44:29;;;;;;;31.40;15.45;;;;;;;1.74;94.85;100960.92;1658054;86;25471;-74
2022/01/26 06:47:01;;;;;;;29.02;15.20;;;;;;;1.74;94.86;100960.09;1657296;86;25679;-74
2022/01/26 06:51:50;;;;;;;30.17;15.78;;;;;;;1.74;94.89;100957.42;1658177;86;30709;-76
2022/01/26 06:54:17;;;;;;;35.23;17.57;;;;;;;1.72;94.91;100960.84;1658190;86;25656;-76
2022/01/26 06:56:45;;;;;;;38.65;19.85;;;;;;;1.74;95.02;100956.92;1658064;86;25449;-76
2022/01/26 06:59:13;;;;;;;37.93;18.98;;;;;;;1.75;95.09;100957.72;1657978;86;25609;-75
2022/01/26 07:01:40;;;;;;;31.45;18.52;;;;;;;1.77;95.10;100959.13;1658034;86;25654;-75
2022/01/26 07:04:08;;;;;;;38.08;19.77;;;;;;;1.78;95.14;100951.92;1658025;86;27310;-75
2022/01/26 07:06:34;;;;;;;34.53;18.65;;;;;;;1.79;95.14;100954.89;1657978;86;25667;-75
2022/01/26 07:09:01;;;;;;;41.48;21.30;;;;;;;1.81;95.18;100948.80;1658660;86;25388;-75
2022/01/26 07:11:27;;;;;;;45.55;21.57;;;;;;;1.82;95.11;100951.73;1658983;86;25696;-75
2022/01/26 07:13:58;;;;;;;48.98;24.70;;;;;;;1.80;95.01;100953.30;1659066;86;25414;-75
2022/01/26 07:19:50;;;;;;;47.10;21.48;;;;;;;1.83;95.13;100954.70;1658972;86;25669;-76
2022/01/26 07:21:55;;;;;;;39.63;20.37;;;;;;;1.83;95.07;100961.37;1655283;86;25483;-75
2022/01/26 07:24:21;;;;;;;53.17;23.83;;;;;;;1.84;95.11;100957.67;1658970;86;26135;-75
2022/01/26 07:26:53;;;;;;;45.65;22.40;;;;;;;1.83;95.08;100950.70;1659053;86;25566;-75
2022/01/26 07:29:21;;;;;;;36.55;20.97;;;;;;;1.84;95.08;100949.13;1658569;86;27327;-75
2022/01/26 07:31:47;;;;;;;36.58;18.62;;;;;;;1.83;95.07;100943.50;1658526;86;25511;-75
2022/01/26 07:34:15;;;;;;;33.67;16.95;;;;;;;1.82;94.96;100952.56;1659044;86;25577;-75
2022/01/26 07:36:43;;;;;;;35.73;18.10;;;;;;;1.82;94.97;100950.40;1658987;85;25612;-75
2022/01/26 07:39:15;;;;;;;32.30;16.87;;;;;;;1.82;95.03;100952.56;1659130;86;25643;-76
2022/01/26 07:41:39;;;;;;;28.23;15.63;;;;;;;1.81;95.10;100945.59;1658704;86;27408;-75
2022/01/26 07:44:06;;;;;;;37.03;16.75;;;;;;;1.84;95.22;100958.47;1658947;85;25403;-75
2022/01/26 07:46:33;;;;;;;36.33;17.00;;;;;;;1.86;95.25;100959.57;1633967;86;25550;-75
2022/01/26 07:48:59;;;;;;;31.80;16.90;;;;;;;1.89;95.24;100960.95;1658965;86;25637;-75
2022/01/26 07:51:26;;;;;;;30.55;15.58;;;;;;;1.91;95.22;100961.52;1659139;85;25420;-75
2022/01/26 07:53:52;;;;;;;38.00;15.90;;;;;;;1.89;95.14;100957.78;1659170;86;27385;-75
2022/01/26 07:56:19;;;;;;;32.17;15.15;;;;;;;1.92;95.04;100959.14;1659087;86;25565;-75
2022/01/26 07:58:48;;;;;;;29.45;15.35;;;;;;;1.93;95.19;100958.11;1659233;86;25673;-75
2022/01/26 08:01:14;;;;;;;28.10;15.20;;;;;;;1.97;95.44;100959.25;1659081;86;26268;-75
2022/01/26 08:03:41;;;;;;;28.57;14.85;;;;;;;2.01;95.39;100961.73;1658986;85;25642;-75
2022/01/26 08:06:14;;;;;;;30.12;16.07;;;;;;;2.02;95.18;100967.36;1659230;86;27232;-75
2022/01/26 08:08:36;;;;;;;27.55;15.53;;;;;;;2.02;95.14;100966.83;1658325;86;25727;-75
2022/01/26 08:11:02;;;;;;;29.82;15.32;;;;;;;2.03;95.08;100961.80;1661440;85;25560;-75
2022/01/26 08:13:29;;;;;;;33.38;15.10;;;;;;;2.04;94.95;100961.27;1642470;85;25642;-75
2022/01/26 08:15:57;;;;;;;25.97;14.28;;;;;;;2.05;95.03;100961.56;1632300;87;25563;-75
2022/01/26 08:18:25;;;;;;;28.57;13.60;;;;;;;2.07;95.14;100963.47;1632268;87;27380;-76
2022/01/26 08:20:52;;;;;;;26.85;16.05;;;;;;;2.09;94.97;100956.56;1632049;87;25645;-75
2022/01/26 08:23:21;;;;;;;32.48;16.23;;;;;;;2.12;95.21;100952.09;1632274;87;25654;-75
2022/01/26 08:25:50;;;;;;;32.80;14.73;;;;;;;2.17;95.61;100949.52;1632244;87;25734;-76
2022/01/26 08:28:25;;;;;;;28.17;16.73;;;;;;;2.24;95.66;100960.34;1632348;87;25485;-75
2022/01/26 08:30:47;;;;;;;30.37;15.55;;;;;;;2.25;95.30;100950.49;1631058;87;27896;-75
2022/01/26 08:33:15;;;;;;;35.43;15.23;;;;;;;2.32;95.50;100959.70;1641196;85;25716;-75
2022/01/26 08:35:42;;;;;;;49.80;21.27;;;;;;;2.37;95.54;100965.14;1657427;86;26584;-76
2022/01/26 08:38:09;;;;;;;42.55;20.27;;;;;;;2.44;95.77;100955.13;1658809;86;26219;-76
2022/01/26 08:40:36;;;;;;;34.08;17.27;;;;;;;2.50;95.44;100962.16;1634011;86;25532;-76
2022/01/26 08:43:04;;;;;;;52.65;23.85;;;;;;;2.55;95.16;100962.79;1659130;86;27332;-75
2022/01/26 08:45:32;;;;;;;61.15;29.12;;;;;;;2.60;95.39;100962.88;1632933;86;25428;-75
2022/01/26 08:47:59;;;;;;;53.00;25.90;;;;;;;2.70;95.73;100967.61;1636798;86;25614;-75
2022/01/26 08:50:25;;;;;;;43.05;19.80;;;;;;;2.74;95.30;100952.70;1647459;86;26178;-75
2022/01/26 08:52:52;;;;;;;38.05;17.90;;;;;;;2.79;95.12;100959.48;1621443;87;25789;-76
2022/01/26 08:55:19;;;;;;;32.30;15.20;;;;;;;2.84;95.09;100960.10;1653753;86;27953;-75
2022/01/26 08:57:46;;;;;;;34.18;16.40;;;;;;;2.90;95.06;100958.61;1605666;89;25674;-75
2022/01/26 09:00:13;;;;;;;34.20;16.75;;;;;;;2.97;94.93;100951.78;1646909;86;25774;-76
2022/01/26 09:02:41;;;;;;;32.48;16.27;;;;;;;2.99;94.53;100959.02;1643339;87;25692;-75
2022/01/26 09:05:09;;;;;;;22.90;12.18;;;;;;;2.96;94.05;100948.81;1646828;86;25471;-75
2022/01/26 09:07:36;;;;;;;23.05;12.23;;;;;;;2.99;94.02;100951.81;1644130;85;27343;-75
2022/01/26 09:10:06;;;;;;;21.90;11.75;;;;;;;3.01;93.79;100948.89;1641901;87;25448;-75
2022/01/26 09:12:35;;;;;;;;;;;;;;;2.99;93.28;100945.66;1579965;90;25661;-75
2022/01/26 09:15:04;;;;;;;25.80;12.15;;;;;;;3.01;93.33;100950.77;1580247;89;25818;-75
2022/01/26 09:17:31;;;;;;;25.43;12.45;;;;;;;2.99;93.22;100945.66;1580239;89;25802;-76
2022/01/26 09:20:00;;;;;;;25.37;12.18;;;;;;;3.00;93.34;100948.63;1580343;90;27472;-74
2022/01/26 09:22:26;;;;;;;28.32;14.23;;;;;;;3.03;93.21;100945.98;1580153;90;25815;-74
2022/01/26 09:24:53;;;;;;;30.30;13.25;;;;;;;3.09;93.48;100941.02;1580290;90;25533;-74
2022/01/26 09:27:19;;;;;;;24.60;12.13;;;;;;;3.22;93.75;100945.21;1580432;90;25683;-75
2022/01/26 09:29:47;;;;;;;21.20;12.80;;;;;;;3.31;93.47;100935.20;1560195;90;25693;-75
2022/01/26 09:32:15;;;;;;;94.55;43.85;;;;;;;3.39;93.30;100940.69;1585313;88;27909;-75
2022/01/26 09:34:43;;;;;;;47.15;23.42;;;;;;;3.49;93.67;100934.66;1570442;90;25770;-77
2022/01/26 09:37:32;;;;;;;24.40;13.15;;;;;;;3.55;93.46;100936.36;1562152;91;25970;-75
2022/01/26 09:39:58;;;;;;;23.18;12.33;;;;;;;3.53;91.99;100939.27;1671474;85;26236;-75
2022/01/26 09:42:25;;;;;;;22.87;11.10;;;;;;;3.52;91.83;100936.84;1677438;82;25658;-76
2022/01/26 09:44:52;;;;;;;24.00;11.73;;;;;;;3.55;91.50;100944.38;1738999;82;28056;-75
2022/01/26 09:47:24;;;;;;;26.12;12.80;;;;;;;3.51;91.23;100937.92;1741641;82;25750;-76
2022/01/26 09:49:51;;;;;;;24.63;12.10;;;;;;;3.49;91.11;100938.66;1710666;82;25541;-76
2022/01/26 09:52:27;;;;;;;26.80;12.82;;;;;;;3.44;90.46;100943.94;1736182;81;25849;-76
2022/01/26 09:54:49;;;;;;;21.52;11.95;;;;;;;3.36;90.09;100938.49;1766338;80;25561;-76
2022/01/26 09:57:18;;;;;;;22.77;12.82;;;;;;;3.32;90.08;100933.33;1767895;81;26662;-76
2022/01/26 09:59:45;;;;;;;27.73;14.28;;;;;;;3.31;90.45;100939.75;1768232;81;25504;-76
2022/01/26 10:02:36;;;;;;;24.37;14.13;;;;;;;3.31;90.61;100946.44;1768320;81;25673;-76
2022/01/26 10:05:09;;;;;;;28.15;13.53;;;;;;;3.30;90.81;100940.80;1767724;81;25645;-76
2022/01/26 10:07:51;;;;;;;25.90;13.13;;;;;;;3.33;91.00;100933.09;1766685;81;25761;-76
2022/01/26 10:15:50;;;;;;;23.12;12.85;;;;;;;3.20;90.00;100932.62;1792697;80;25547;-76
2022/01/26 10:18:17;;;;;;;31.30;13.38;;;;;;;3.15;89.94;100924.81;1791293;80;25666;-76
2022/01/26 10:20:59;;;;;;;25.20;12.68;;;;;;;3.15;90.43;100928.00;1792638;80;25554;-74
2022/01/26 10:23:29;;;;;;;27.55;13.05;;;;;;;3.18;90.72;100927.01;1792495;80;27370;-76
2022/01/26 10:26:20;;;;;;;27.95;12.58;;;;;;;3.20;90.54;100919.25;1792409;80;25682;-76
2022/01/26 10:28:56;;;;;;;23.95;13.80;;;;;;;3.25;90.93;100920.66;1792339;80;25386;-76
2022/01/26 10:31:26;;;;;;;24.47;12.65;;;;;;;3.26;90.40;100916.41;1791845;80;25641;-76
2022/01/26 10:33:58;;;;;;;25.55;12.85;;;;;;;3.25;89.79;100914.81;1792741;80;25668;-77
2022/01/26 10:36:28;;;;;;;26.80;12.45;;;;;;;3.24;89.43;100907.03;1792961;80;27556;-76
2022/01/26 10:39:12;;;;;;;20.35;12.40;;;;;;;3.26;89.67;100918.28;1790343;80;25428;-76
2022/01/26 10:41:42;;;;;;;26.12;12.63;;;;;;;3.23;89.07;100897.38;1793797;80;25543;-76
2022/01/26 10:44:11;;;;;;;19.80;10.48;;;;;;;3.20;89.17;100895.99;1793788;80;25614;-75
2022/01/26 10:46:42;;;;;;;26.35;12.73;;;;;;;3.19;88.89;100891.72;1793601;79;25632;-77
2022/01/26 10:49:19;;;;;;;25.68;12.35;;;;;;;3.21;89.13;100886.93;1790542;79;27322;-74
2022/01/26 10:54:35;;;;;;;20.17;10.85;;;;;;;3.31;89.32;100875.05;1766936;80;34641;-75
2022/01/26 10:56:50;;;;;;;22.40;11.10;;;;;;;3.34;89.24;100867.87;1788406;80;25628;-75
2022/01/26 10:59:19;;;;;;;22.22;11.38;;;;;;;3.44;89.74;100861.86;1790927;80;25709;-75
2022/01/26 11:01:46;;;;;;;16.07;9.80;;;;;;;3.53;89.77;100864.37;1790726;80;26872;-76
2022/01/26 11:04:13;;;;;;;18.85;9.75;;;;;;;3.59;89.25;100856.41;1790813;79;25567;-76
2022/01/26 11:06:43;;;;;;;17.73;10.03;;;;;;;3.62;88.86;100850.03;1790928;80;25221;-76
2022/01/26 11:09:13;;;;;;;18.15;9.58;;;;;;;3.57;87.52;100852.65;1765211;80;26550;-76
2022/01/26 11:11:40;;;;;;;17.80;9.75;;;;;;;3.51;87.34;100850.98;1790474;80;25584;-76
2022/01/26 11:14:22;;;;;;;17.52;10.00;;;;;;;3.49;87.27;100853.08;1740547;80;26319;-77
2022/01/26 11:17:03;;;;;;;17.45;10.48;;;;;;;3.50;87.83;100856.84;1789431;79;25626;-78
2022/01/26 11:19:42;;;;;;;24.72;11.78;;;;;;;3.52;87.33;100852.08;1789801;80;25397;-77
2022/01/26 11:22:12;;;;;;;20.75;10.48;;;;;;;3.49;87.23;100845.05;1790442;80;25755;-77
2022/01/26 11:24:48;;;;;;;20.10;10.98;;;;;;;3.48;86.78;100840.23;1766655;80;25487;-75
2022/01/26 11:27:17;;;;;;;21.97;10.78;;;;;;;3.44;86.88;100839.12;1790559;80;27321;-74
2022/01/26 11:29:48;;;;;;;;;;;;;;;3.44;86.65;100844.48;1768529;80;25731;-74
2022/01/26 11:32:27;;;;;;;16.65;10.18;;;;;;;3.41;86.35;100842.83;1790599;80;25570;-74
2022/01/26 11:34:56;;;;;;;20.45;9.18;;;;;;;3.38;86.56;100844.66;1766843;80;26464;-75
2022/01/26 11:37:40;;;;;;;17.73;9.88;;;;;;;3.36;86.36;100849.71;1766010;80;25317;-76
2022/01/26 11:45:34;;;;;;;14.00;7.20;;;;;;;3.27;85.01;100830.31;1790446;80;25364;-74
2022/01/26 11:48:12;;;;;;;17.85;9.18;;;;;;;3.21;84.99;100836.13;1790528;79;25729;-74
2022/01/26 11:50:43;;;;;;;17.62;9.48;;;;;;;3.20;85.35;100831.83;1790469;79;25523;-75
2022/01/26 11:53:15;;;;;;;19.42;9.88;;;;;;;3.16;85.32;100822.70;1790557;79;27874;-74
2022/01/26 11:55:49;;;;;;;17.48;9.48;;;;;;;3.15;85.37;100817.05;1790399;80;25668;-75
2022/01/26 11:58:20;;;;;;;20.30;10.23;;;;;;;3.15;85.65;100814.38;1790975;80;25460;-75
2022/01/26 12:01:09;;;;;;;15.28;9.18;;;;;;;3.17;85.88;100814.43;1789300;80;25619;-72
2022/01/26 12:03:32;;;;;;;17.82;10.43;;;;;;;3.20;85.86;100811.78;1788904;80;25433;-72
2022/01/26 12:06:01;;;;;;;21.05;9.85;;;;;;;3.15;85.52;100809.03;1790236;79;27295;-72
2022/01/26 12:08:38;;;;;;;17.92;10.82;;;;;;;3.12;85.70;100814.36;1790458;80;25578;-72
2022/01/26 12:11:09;;;;;;;14.78;10.20;;;;;;;3.10;85.63;100815.65;1790469;80;25408;-72
2022/01/26 12:13:38;;;;;;;18.92;9.63;;;;;;;3.07;85.70;100817.50;1790409;80;25664;-73
2022/01/26 12:16:12;;;;;;;18.40;10.05;;;;;;;3.05;85.78;100808.89;1765723;80;25592;-71
2022/01/26 12:18:44;;;;;;;20.37;10.58;;;;;;;3.02;85.88;100806.20;1790006;80;27411;-71
2022/01/26 12:33:09;;;;;;;25.23;12.73;;;;;;;2.74;86.94;100805.27;1790298;80;28016;-72
2022/01/26 12:38:34;;;;;;;21.90;13.28;;;;;;;2.67;87.10;100793.92;1790244;80;25425;-72
2022/01/26 12:44:02;;;;;;;29.20;16.55;;;;;;;2.59;87.71;100799.69;1729028;83;25468;-71
2022/01/26 12:46:33;;;;;;;29.75;16.30;;;;;;;2.56;87.93;100786.82;1728226;83;27894;-71
2022/01/26 12:49:13;;;;;;;31.42;19.57;;;;;;;2.55;88.32;100781.19;1728936;83;25256;-72
2022/01/26 12:51:54;;;;;;;30.72;17.20;;;;;;;2.48;88.34;100777.88;1729036;83;25254;-72
2022/01/26 12:54:21;;;;;;;32.25;18.50;;;;;;;2.44;88.57;100772.21;1728896;83;25504;-72
2022/01/26 12:56:47;;;;;;;35.78;19.90;;;;;;;2.42;89.06;100783.13;1728863;83;25650;-72
2022/01/26 12:59:18;;;;;;;31.35;20.32;;;;;;;2.39;89.14;100780.94;1728857;83;27341;-73
2022/01/26 13:01:47;;;;;;;32.53;19.35;;;;;;;2.36;89.39;100769.94;1728633;83;25513;-72
2022/01/26 13:04:18;;;;;;;34.25;20.32;;;;;;;2.33;89.59;100766.41;1728944;83;25669;-73
2022/01/26 13:06:54;;;;;;;29.95;18.65;;;;;;;2.32;89.70;100762.14;1728916;83;25632;-73
2022/01/26 13:09:27;;;;;;;27.30;16.70;;;;;;;2.32;89.93;100764.81;1728926;83;25651;-73
2022/01/26 13:11:57;;;;;;;24.25;15.95;;;;;;;2.30;90.12;100767.72;1728866;83;27477;-72
2022/01/26 13:14:37;;;;;;;32.93;17.20;;;;;;;2.28;90.26;100769.00;1728247;83;25497;-72
2022/01/26 13:25:53;;;;;;;27.58;16.87;;;;;;;2.19;91.37;100764.59;1728460;83;27308;-73
2022/01/26 13:28:34;;;;;;;28.57;17.02;;;;;;;2.14;91.25;100760.50;1726249;83;25662;-72
2022/01/26 13:39:18;;;;;;;25.43;15.50;;;;;;;2.09;92.10;100752.41;1726526;82;27312;-74
2022/01/26 13:41:49;;;;;;;26.20;16.50;;;;;;;2.07;92.31;100751.31;1656413;85;25513;-73
2022/01/26 13:49:24;;;;;;;29.57;17.77;;;;;;;2.10;92.52;100742.02;1687553;85;25698;-72
2022/01/26 13:59:43;;;;;;;;;;;;;;;2.12;92.76;100735.37;1735194;81;25923;-72
2022/01/26 14:01:57;;;;;;;25.90;16.87;;;;;;;2.13;92.91;100734.84;1734649;81;25380;-72
2022/01/26 14:04:26;;;;;;;26.65;15.93;;;;;;;2.10;92.79;100733.48;1761484;81;27486;-72